Historique des stations

Station météo de Le Louroux

Altitude de la station : 103 m







Données météorologiques pour le 26/06/2022
Date
Heure
Températures Humidité Point de rosée Vitesse
du vent
Direction Rafales Windchill Pression Pluviométrie
Cumul
Date
Heure
Températures Humidité Point de rosée Vitesse
du vent
Direction Rafales Windchill Pression Pluviométrie
Cumul
26/06/2022 15:0020.6 °C62 %12.8 °C8 km/hENE14 km/h20.6 1014 hPa-
26/06/2022 15:0020.6 °C62 %12.8 °C8 km/hENE14 km/h20.6 1014 hPa-
26/06/2022 15:0020.6 °C62 %12.8 °C8 km/hENE14 km/h20.6 1014 hPa-
26/06/2022 15:0020.6 °C62 %12.8 °C8 km/hENE14 km/h20.6 1014 hPa-
26/06/2022 15:0020.6 °C62 %12.8 °C8 km/hENE14 km/h20.6 1014 hPa-
26/06/2022 15:0020.6 °C62 %12.8 °C8 km/hENE14 km/h20.6 1014 hPa-
26/06/2022 15:0020.6 °C62 %12.8 °C8 km/hENE14 km/h20.6 1014 hPa-
26/06/2022 15:0020.6 °C62 %12.8 °C8 km/hENE14 km/h20.6 1014 hPa-
26/06/2022 14:0021.3 °C58 %12.8 °C-NNE14 km/h21.1 1014 hPa-
26/06/2022 14:0021.3 °C58 %12.8 °C-NNE14 km/h21.1 1014 hPa-
26/06/2022 14:0021.3 °C58 %12.8 °C-NNE14 km/h21.1 1014 hPa-
26/06/2022 14:0021.3 °C58 %12.8 °C-NNE14 km/h21.1 1014 hPa-
26/06/2022 13:0021.2 °C58 %12.2 °C-N3 km/h21.1 1014 hPa-
26/06/2022 13:0021.2 °C58 %12.2 °C-N14 km/h21.1 1014 hPa-
26/06/2022 13:0021.2 °C58 %12.2 °C-N14 km/h21.1 1014 hPa-
26/06/2022 13:0021.2 °C58 %12.2 °C-N14 km/h21.1 1014 hPa-
26/06/2022 12:5921.2 °C58 %12.2 °C-N14 km/h21.1 1014 hPa-
26/06/2022 12:4620.7 °C62 %13.3 °C-NO10 km/h20.6 1015 hPa-
26/06/2022 12:4420.6 °C60 %12.2 °C3 km/hNNO14 km/h20.6 1015 hPa-
26/06/2022 12:3220.1 °C63 %12.8 °C-ENE8 km/h20.0 1015 hPa-
26/06/2022 12:3019.9 °C64 %12.8 °C-S13 km/h20.0 1015 hPa-
26/06/2022 12:1619.6 °C62 %12.2 °C-NNO14 km/h19.4 1015 hPa-
26/06/2022 12:1419.6 °C64 %12.8 °C5 km/hNNO13 km/h19.4 1015 hPa-
26/06/2022 12:0019.8 °C65 %12.8 °C3 km/hSE13 km/h20.0 1015 hPa-
26/06/2022 11:0018.0 °C76 %13.9 °C-NNE13 km/h17.8 1015 hPa-
26/06/2022 11:0018.0 °C76 %13.9 °C-NNE13 km/h17.8 1015 hPa-
26/06/2022 11:0018.0 °C76 %13.9 °C-NNE13 km/h17.8 1015 hPa-
26/06/2022 11:0018.0 °C76 %13.9 °C-NNE13 km/h17.8 1015 hPa-
26/06/2022 10:4717.5 °C80 %13.9 °C-NNE5 km/h17.8 1015 hPa-
26/06/2022 10:4517.4 °C79 %13.9 °C2 km/hNE13 km/h17.2 1015 hPa-
26/06/2022 10:3116.7 °C81 %13.3 °C-ENE3 km/h16.7 1015 hPa-
26/06/2022 10:3016.7 °C81 %13.3 °C-ENE13 km/h16.7 1015 hPa-
26/06/2022 10:1616.2 °C81 %12.8 °C-ENE5 km/h16.1 1015 hPa-
26/06/2022 10:1516.2 °C81 %12.8 °C-ENE13 km/h16.1 1015 hPa-
26/06/2022 10:0015.8 °C87 %13.9 °C-SSE13 km/h15.6 1015 hPa-
26/06/2022 09:4615.4 °C91 %13.9 °C---15.6 1015 hPa-
26/06/2022 09:4415.3 °C91 %13.9 °C-SSE13 km/h15.6 1015 hPa-
26/06/2022 09:3114.6 °C92 %13.3 °C---14.4 1015 hPa-
26/06/2022 09:2914.5 °C92 %13.3 °C-SSE13 km/h14.4 1015 hPa-
26/06/2022 09:0014.2 °C93 %13.3 °C-SSE13 km/h14.4 1015 hPa-
26/06/2022 09:0014.2 °C93 %13.3 °C-SSE13 km/h14.4 1015 hPa-
26/06/2022 08:4714.1 °C93 %12.8 °C---13.9 1015 hPa-
26/06/2022 08:4514.0 °C93 %12.8 °C-SSE13 km/h13.9 1015 hPa-
26/06/2022 08:3213.6 °C93 %12.8 °C---13.9 1015 hPa-
26/06/2022 07:5912.8 °C93 %11.7 °C-SSE13 km/h12.8 1015 hPa-
26/06/2022 07:5912.8 °C93 %11.7 °C-SSE13 km/h12.8 1015 hPa-
26/06/2022 07:5912.8 °C93 %11.7 °C-SSE13 km/h12.8 1015 hPa-
26/06/2022 07:4612.3 °C93 %11.1 °C---12.2 1015 hPa-
26/06/2022 07:4412.3 °C93 %11.1 °C-SSE13 km/h12.2 1015 hPa-
26/06/2022 06:0012.4 °C93 %11.7 °C-SSE13 km/h12.2 1014 hPa-
26/06/2022 06:0012.4 °C93 %11.7 °C-SSE13 km/h12.2 1014 hPa-
26/06/2022 06:0012.4 °C93 %11.7 °C-SSE13 km/h12.2 1014 hPa-
26/06/2022 06:0012.4 °C93 %11.7 °C-SSE13 km/h12.2 1014 hPa-
26/06/2022 06:0012.4 °C93 %11.7 °C-SSE13 km/h12.2 1014 hPa-
26/06/2022 06:0012.4 °C93 %11.7 °C-SSE13 km/h12.2 1014 hPa-
26/06/2022 06:0012.4 °C93 %11.7 °C-SSE13 km/h12.2 1014 hPa-
26/06/2022 02:5912.6 °C92 %11.7 °C3 km/hESE13 km/h12.8 1014 hPa-
26/06/2022 02:5912.6 °C92 %11.7 °C3 km/hESE13 km/h12.8 1014 hPa-
26/06/2022 02:5912.6 °C92 %11.7 °C3 km/hESE13 km/h12.8 1014 hPa-
26/06/2022 02:5912.6 °C92 %11.7 °C3 km/hESE13 km/h12.8 1014 hPa-
26/06/2022 02:5912.6 °C92 %11.7 °C3 km/hESE13 km/h12.8 1014 hPa-
26/06/2022 02:5912.6 °C92 %11.7 °C3 km/hESE13 km/h12.8 1014 hPa-
26/06/2022 02:5912.6 °C92 %11.7 °C3 km/hESE13 km/h12.8 1014 hPa-
26/06/2022 02:5912.6 °C92 %11.7 °C3 km/hESE13 km/h12.8 1014 hPa-
26/06/2022 02:5912.6 °C92 %11.7 °C3 km/hESE13 km/h12.8 1014 hPa-
26/06/2022 02:5912.6 °C92 %11.7 °C3 km/hESE13 km/h12.8 1014 hPa-
26/06/2022 02:5912.6 °C92 %11.7 °C3 km/hESE13 km/h12.8 1014 hPa-
26/06/2022 02:5912.6 °C92 %11.7 °C3 km/hESE13 km/h12.8 1014 hPa-
26/06/2022 02:4612.7 °C91 %11.1 °C-ESE5 km/h12.8 1014 hPa-
26/06/2022 02:4512.8 °C91 %11.7 °C-ESE13 km/h12.8 1014 hPa-
26/06/2022 02:0013.2 °C92 %12.2 °C5 km/hESE11 km/h13.3 1014 hPa-
26/06/2022 02:0013.2 °C92 %12.2 °C5 km/hESE13 km/h13.3 1014 hPa-
26/06/2022 02:0013.2 °C92 %12.2 °C5 km/hESE13 km/h13.3 1014 hPa-
26/06/2022 01:5913.2 °C92 %12.2 °C3 km/hSE13 km/h13.3 1014 hPa-
26/06/2022 01:4613.3 °C92 %12.2 °C6 km/hESE11 km/h13.3 1014 hPa-
26/06/2022 01:4513.3 °C92 %12.2 °C6 km/hESE11 km/h13.3 1014 hPa-
26/06/2022 01:3113.2 °C92 %12.2 °C6 km/hESE13 km/h13.3 1014 hPa-
26/06/2022 01:3013.2 °C92 %12.2 °C8 km/hSE11 km/h12.8 1014 hPa-
26/06/2022 00:0013.4 °C91 %12.2 °C3 km/hESE3 km/h13.3 1014 hPa-
26/06/2022 00:0013.4 °C91 %12.2 °C3 km/hESE3 km/h13.3 1014 hPa-
26/06/2022 00:0013.4 °C91 %12.2 °C3 km/hESE3 km/h13.3 1014 hPa-
26/06/2022 00:0013.4 °C91 %12.2 °C3 km/hESE3 km/h13.3 1014 hPa-
26/06/2022 00:0013.4 °C91 %12.2 °C3 km/hESE3 km/h13.3 1014 hPa-
26/06/2022 00:0013.4 °C91 %12.2 °C3 km/hESE3 km/h13.3 1014 hPa-


Minima :

Température : 12.3 °C
Humidité : 58 %
Point de rosée : 11.1 °C
Vent moyen : 2 km/h
Windchill : 12.2
Pression atm. : 1014 hPa
Maxima :

Température : 21.3 °C
Humidité : 93 %
Point de rosée : 13.9 °C
Vent moyen : 8 km/h
Windchill : 21.1
Pression atm. : 1015 hPa
Rafales max : 14 km/h
Cumul de pluie sur 24H : 0 mm

Le Louroux est une commune du département Indre-et-Loire (37).
La station météorologique du réseau de l'association la plus proche de Le Louroux est celle de Tauxigny



Icône Facebook Association Météo Centre Icône Twitter Association Météo Centre Icône Chaîne Youtube Association Météo Centre Icône contact Association Météo Centre Icône Insta Association Météo Centre